Mayne Queen — VGRR — position and weather

sailwx.info

Track history (hours):
 
Tides and Currents Weather Stations Pressure Air Temp Water Temp Dewpoint Dewpoint Depression Visibility Wind Speed Wind Dir Waves Ship Positions

Mayne Queen

Last reported at 2017-Nov-19 06:18 UTC. Time now 2017-Nov-19 08:58 UTC.
Position N 48°42' W 123°24'.

Length 85 m; draft 3.8 m.

Type: Passenger vessel. MMSI: 316001238.

Date/timePositionNaut miles runAvg speedWind from/ knotsBaromVisibWave heightAir tempDewpointWater temp
2017-Nov-19 06:18N 48°42' W 123°24'411.5
2017-Nov-19 05:56N 48°46' W 123°22'5 9.3
2017-Nov-19 05:24N 48°49' W 123°16'2 6.2
2017-Nov-19 05:00N 48°48' W 123°12'510.5
2017-Nov-19 04:30N 48°49' W 123°20'3 6.1
2017-Nov-19 04:00N 48°46' W 123°20'5 6.1
2017-Nov-19 03:06N 48°41' W 123°24'111.0
2017-Nov-19 02:59N 48°43' W 123°24'611.7
2017-Nov-19 02:30N 48°48' W 123°21'3 5.3
2017-Nov-19 01:56N 48°51' W 123°20'2 4.1
2017-Nov-19 01:28N 48°52' W 123°19'2 3.3
2017-Nov-19 00:53N 48°51' W 123°20'3 6.8
2017-Nov-19 00:28N 48°48' W 123°19'610.3
2017-Nov-18 23:54N 48°43' W 123°24'2 0.7
2017-Nov-18 21:35N 48°42' W 123°24'112.0
2017-Nov-18 21:29N 48°42' W 123°22'511.5
2017-Nov-18 21:00N 48°43' W 123°14'4 7.0
2017-Nov-18 20:30N 48°46' W 123°12'2 4.8
2017-Nov-18 20:00N 48°48' W 123°13'5 9.2
2017-Nov-18 19:30N 48°48' W 123°20'1 2.3
2017-Nov-18 18:59N 48°50' W 123°20'0 0.4
2017-Nov-18 18:30N 48°50' W 123°20'610.5
2017-Nov-18 17:59N 48°48' W 123°12'4 8.1
2017-Nov-18 17:27N 48°49' W 123°18'2 3.4
2017-Nov-18 17:00N 48°48' W 123°19'510.9
2017-Nov-18 16:30N 48°43' W 123°24'2 3.0
2017-Nov-18 15:55N 48°42' W 123°24'611.8
2017-Nov-18 15:27N 48°47' W 123°21'4 8.8
2017-Nov-18 15:00N 48°51' W 123°20'3 5.2
2017-Nov-18 14:29N 48°48' W 123°19'5 8.9
2017-Nov-18 13:53N 48°44' W 123°24'2 0.4
2017-Nov-18 08:10N 48°41' W 123°24'2 9.4
2017-Nov-18 07:59N 48°43' W 123°24'511.2
2017-Nov-18 07:30N 48°48' W 123°21'5 9.8
2017-Nov-18 06:57N 48°48' W 123°13'4 6.5
2017-Nov-18 06:18N 48°49' W 123°19'2 6.9
2017-Nov-18 05:59N 48°52' W 123°20'0 0.2
2017-Nov-18 05:27N 48°52' W 123°20'1 2.0
2017-Nov-18 05:00N 48°51' W 123°20'611.0
2017-Nov-18 04:30N 48°45' W 123°22'4 4.7
2017-Nov-18 03:44N 48°42' W 123°24'311.3
2017-Nov-18 03:27N 48°45' W 123°22'4 8.0
2017-Nov-18 03:00N 48°48' W 123°19'4 8.0
2017-Nov-18 02:30N 48°52' W 123°19'1 1.3
2017-Nov-18 01:59N 48°51' W 123°19'1 1.6
2017-Nov-18 01:30N 48°51' W 123°20'2 3.0
2017-Nov-18 01:00N 48°49' W 123°18'4 7.8
2017-Nov-18 00:27N 48°48' W 123°12'510.5
2017-Nov-18 00:00N 48°50' W 123°19'510.8
2017-Nov-17 23:30N 48°45' W 123°23'3 1.6
2017-Nov-17 21:21N 48°42' W 123°24'411.4
2017-Nov-17 20:58N 48°46' W 123°22'511.2
2017-Nov-17 20:30N 48°51' W 123°20'2 3.1
2017-Nov-17 20:00N 48°52' W 123°18'1 2.1
2017-Nov-17 19:30N 48°52' W 123°20'2 3.9
2017-Nov-17 19:00N 48°50' W 123°19'5 8.7
2017-Nov-17 18:27N 48°48' W 123°12'510.8
2017-Nov-17 18:00N 48°50' W 123°19'610.8
2017-Nov-17 17:27N 48°44' W 123°23'3 2.5
2017-Nov-17 16:21N 48°42' W 123°24'410.7
2017-Nov-17 15:58N 48°45' W 123°22'3 6.7
2017-Nov-17 15:29N 48°48' W 123°19'3 5.5
2017-Nov-17 15:00N 48°51' W 123°20'510.1
2017-Nov-17 14:29N 48°48' W 123°13'2 5.1
2017-Nov-17 14:00N 48°49' W 123°16'4 8.9
2017-Nov-17 13:30N 48°46' W 123°22'5 0.8
2017-Nov-17 07:39N 48°42' W 123°24'211.6
2017-Nov-17 07:28N 48°44' W 123°24'611.4
2017-Nov-17 06:58N 48°49' W 123°20'510.8
2017-Nov-17 06:30N 48°48' W 123°13'4 6.1
2017-Nov-17 05:53N 48°49' W 123°18'2 4.2
2017-Nov-17 05:30N 48°51' W 123°20'3 5.6
2017-Nov-17 05:00N 48°48' W 123°19'611.2
2017-Nov-17 04:29N 48°43' W 123°24'1 2.1
2017-Nov-17 03:57N 48°42' W 123°24'711.9
2017-Nov-17 03:23N 48°48' W 123°19'2 5.2
2017-Nov-17 03:00N 48°50' W 123°20'3 5.4
2017-Nov-17 02:26N 48°53' W 123°19'2 4.6
2017-Nov-17 02:00N 48°51' W 123°20'1 1.3
2017-Nov-17 01:28N 48°51' W 123°20'2 5.0
2017-Nov-17 01:00N 48°49' W 123°17'3 6.8
2017-Nov-17 00:31N 48°48' W 123°12'5 9.8
2017-Nov-16 23:58N 48°49' W 123°20'611.4
2017-Nov-16 23:28N 48°44' W 123°24'2 0.9
2017-Nov-16 21:22N 48°42' W 123°24'511.3
2017-Nov-16 20:54N 48°47' W 123°21'410.1
2017-Nov-16 20:30N 48°51' W 123°20'2 3.4
2017-Nov-16 20:00N 48°52' W 123°18'2 4.2
2017-Nov-16 19:30N 48°51' W 123°21'2 4.5
2017-Nov-16 18:59N 48°50' W 123°19'5 8.9
2017-Nov-16 18:28N 48°48' W 123°12'510.3
2017-Nov-16 18:00N 48°50' W 123°19'711.1
2017-Nov-16 17:24N 48°44' W 123°24'2 2.1
2017-Nov-16 16:27N 48°42' W 123°24'510.1
2017-Nov-16 15:55N 48°46' W 123°21'2 3.6
2017-Nov-16 15:28N 48°48' W 123°20'2 5.2
2017-Nov-16 15:00N 48°50' W 123°20'611.5
2017-Nov-16 14:30N 48°48' W 123°12'3 6.0
2017-Nov-16 13:59N 48°49' W 123°17'5 9.0
2017-Nov-16 13:24N 48°45' W 123°22'4 0.6
2017-Nov-16 07:42N 48°42' W 123°24'211.5
2017-Nov-16 07:29N 48°44' W 123°23'611.6
2017-Nov-16 07:00N 48°49' W 123°20'510.8
2017-Nov-16 06:31N 48°48' W 123°12'4 7.4
2017-Nov-16 05:59N 48°49' W 123°18'2 3.9
2017-Nov-16 05:30N 48°51' W 123°20'3 5.4
2017-Nov-16 05:00N 48°48' W 123°19'610.3
2017-Nov-16 04:28N 48°43' W 123°24'2 2.3
2017-Nov-16 03:48N 48°42' W 123°24'411.8
2017-Nov-16 03:27N 48°46' W 123°21'4 6.7
2017-Nov-16 02:54N 48°49' W 123°21'3 8.4
2017-Nov-16 02:29N 48°53' W 123°19'1 2.8
2017-Nov-16 02:00N 48°52' W 123°20'1 1.9
2017-Nov-16 01:28N 48°51' W 123°20'2 3.8
2017-Nov-16 00:55N 48°49' W 123°17'4 8.8
2017-Nov-16 00:30N 48°48' W 123°12'5 9.3
2017-Nov-15 23:59N 48°50' W 123°19'510.8
2017-Nov-15 23:30N 48°45' W 123°23'3 1.8
2017-Nov-15 21:34N 48°41' W 123°24'110.4
2017-Nov-15 21:30N 48°42' W 123°24'611.2
2017-Nov-15 21:00N 48°47' W 123°21'3 6.9
2017-Nov-15 20:30N 48°51' W 123°20'2 3.6
2017-Nov-15 19:59N 48°53' W 123°19'2 3.8
2017-Nov-15 19:28N 48°51' W 123°20'3 5.8
2017-Nov-15 18:54N 48°49' W 123°15'2 5.8
2017-Nov-15 18:30N 48°48' W 123°12'510.3
2017-Nov-15 18:00N 48°50' W 123°20'611.7
2017-Nov-15 17:28N 48°44' W 123°23'2 3.4
2017-Nov-15 16:48N 48°42' W 123°23'510.0
2017-Nov-15 16:20N 48°46' W 123°21'2 7.3
2017-Nov-15 16:00N 48°48' W 123°19'3 5.2
2017-Nov-15 15:30N 48°51' W 123°20'2 4.6
2017-Nov-15 14:59N 48°49' W 123°17'3 6.1
2017-Nov-15 14:26N 48°48' W 123°12'510.1
2017-Nov-15 13:59N 48°49' W 123°19'510.2
2017-Nov-15 13:27N 48°45' W 123°22'0 0.0
2017-Nov-15 07:30N 48°45' W 123°22'5 9.9
2017-Nov-15 06:58N 48°50' W 123°20'5 9.0
2017-Nov-15 06:23N 48°48' W 123°12'1 2.8
2017-Nov-15 06:00N 48°48' W 123°14'5 9.7
2017-Nov-15 05:30N 48°51' W 123°20'3 5.6
2017-Nov-15 05:00N 48°48' W 123°19'3 6.8
2017-Nov-15 04:30N 48°45' W 123°22'4 5.7
2017-Nov-15 03:51N 48°42' W 123°24'410.8
2017-Nov-15 03:30N 48°45' W 123°22'3 6.3
2017-Nov-15 03:00N 48°48' W 123°19'4 8.7
2017-Nov-15 02:29N 48°52' W 123°18'1 2.7
2017-Nov-15 02:00N 48°52' W 123°20'1 1.9
2017-Nov-15 01:30N 48°51' W 123°20'2 3.8
2017-Nov-15 00:59N 48°49' W 123°17'4 7.8
2017-Nov-15 00:30N 48°48' W 123°12'5 9.4
2017-Nov-14 23:59N 48°50' W 123°19'611.2
2017-Nov-14 23:25N 48°44' W 123°23'2 1.1
2017-Nov-14 21:31N 48°42' W 123°24'011.3
2017-Nov-14 21:30N 48°42' W 123°24'510.7
2017-Nov-14 21:00N 48°47' W 123°21'4 7.5
2017-Nov-14 20:30N 48°51' W 123°20'2 3.6
2017-Nov-14 19:58N 48°53' W 123°19'2 3.8
2017-Nov-14 19:30N 48°51' W 123°21'3 5.2
2017-Nov-14 19:00N 48°49' W 123°18'4 8.8
2017-Nov-14 18:30N 48°48' W 123°12'5 9.4
2017-Nov-14 18:00N 48°50' W 123°19'610.2
2017-Nov-14 17:27N 48°45' W 123°23'3 3.2
2017-Nov-14 16:34N 48°42' W 123°24'111.1
2017-Nov-14 16:30N 48°43' W 123°24'5 9.7
2017-Nov-14 16:00N 48°47' W 123°20'1 2.5
2017-Nov-14 15:30N 48°48' W 123°19'2 3.8
2017-Nov-14 14:58N 48°50' W 123°20'611.0
2017-Nov-14 14:27N 48°48' W 123°12'4 7.4
2017-Nov-14 13:58N 48°49' W 123°17'4 8.6
2017-Nov-14 13:27N 48°46' W 123°22'4 0.7
2017-Nov-14 07:03N 48°42' W 123°24'111.1
2017-Nov-14 06:58N 48°43' W 123°24'611.4
2017-Nov-14 06:27N 48°48' W 123°21'5 9.3
2017-Nov-14 05:58N 48°48' W 123°14'1 2.2
2017-Nov-14 05:30N 48°49' W 123°15'3 5.2
2017-Nov-14 05:00N 48°48' W 123°19'5 9.2
2017-Nov-14 04:27N 48°44' W 123°23'2 4.5
2017-Nov-14 03:55N 48°41' W 123°24'510.7
2017-Nov-14 03:24N 48°47' W 123°21'410.4
2017-Nov-14 02:59N 48°51' W 123°20'3 5.5
2017-Nov-14 02:28N 48°49' W 123°16'3 6.0
2017-Nov-14 02:00N 48°48' W 123°12'4 7.8
2017-Nov-14 01:29N 48°49' W 123°18'4 8.9
2017-Nov-14 00:59N 48°46' W 123°22'4 5.9
2017-Nov-14 00:13N 48°42' W 123°24'2 8.5
2017-Nov-14 00:00N 48°42' W 123°21'610.6
2017-Nov-13 23:28N 48°48' W 123°19'1 1.4
2017-Nov-13 23:00N 48°47' W 123°20'5 0.2
2017-Nov-13 01:29N 48°48' W 123°12'510.5
2017-Nov-13 01:00N 48°50' W 123°19'610.7
2017-Nov-13 00:28N 48°44' W 123°23'3 4.6
2017-Nov-12 23:52N 48°42' W 123°24'411.9
2017-Nov-12 23:30N 48°46' W 123°21'3 5.6
2017-Nov-12 23:00N 48°48' W 123°19'611.1
2017-Nov-12 22:25N 48°42' W 123°24'1 0.4
2017-Nov-12 20:36N 48°42' W 123°24'211.6
2017-Nov-12 20:28N 48°43' W 123°24'511.5
2017-Nov-12 20:00N 48°48' W 123°21'4 8.5
2017-Nov-12 19:30N 48°52' W 123°18'1 2.8
2017-Nov-12 19:00N 48°52' W 123°21'2 4.2
2017-Nov-12 18:30N 48°50' W 123°19'510.1
2017-Nov-12 18:00N 48°48' W 123°12'4 7.6
2017-Nov-12 17:28N 48°49' W 123°18'2 3.8
2017-Nov-12 17:00N 48°50' W 123°20'611.2
2017-Nov-12 16:30N 48°48' W 123°12'1 2.3
2017-Nov-12 16:00N 48°49' W 123°14'510.4
2017-Nov-12 15:28N 48°52' W 123°21'2 3.4
2017-Nov-12 15:00N 48°52' W 123°19'3 5.4
2017-Nov-12 14:29N 48°49' W 123°21'611.5
2017-Nov-12 13:56N 48°43' W 123°24'2 0.2
2017-Nov-12 06:17N 48°42' W 123°24'411.4
2017-Nov-12 05:58N 48°45' W 123°22'510.5
2017-Nov-12 05:29N 48°49' W 123°18'4 8.1
2017-Nov-12 04:58N 48°48' W 123°12'510.9
2017-Nov-12 04:30N 48°50' W 123°19'4 6.3
2017-Nov-12 03:55N 48°46' W 123°21'512.0
2017-Nov-12 03:30N 48°42' W 123°24'2 4.4
2017-Nov-12 02:59N 48°44' W 123°24'611.6
2017-Nov-12 02:29N 48°49' W 123°21'2 4.6
2017-Nov-12 01:59N 48°52' W 123°20'1 2.5
2017-Nov-12 01:30N 48°53' W 123°19'2 3.8
2017-Nov-12 01:00N 48°51' W 123°20'3 5.1
2017-Nov-12 00:27N 48°48' W 123°19'511.0
2017-Nov-12 00:00N 48°44' W 123°23'2 0.8
2017-Nov-11 21:27N 48°42' W 123°24'612.0
2017-Nov-11 20:59N 48°47' W 123°21'4 8.2
2017-Nov-11 20:29N 48°49' W 123°15'1 2.2
2017-Nov-11 20:00N 48°48' W 123°14'4 7.3
2017-Nov-11 19:30N 48°48' W 123°19'3 5.2
2017-Nov-11 19:00N 48°51' W 123°20'0 0.1
2017-Nov-11 18:30N 48°50' W 123°20'510.7
2017-Nov-11 18:00N 48°48' W 123°13'3 5.1
2017-Nov-11 17:30N 48°49' W 123°17'2 3.8
2017-Nov-11 17:00N 48°48' W 123°19'710.9
2017-Nov-11 16:22N 48°42' W 123°24'0 0.8
2017-Nov-11 15:58N 48°42' W 123°24'511.3
2017-Nov-11 15:29N 48°47' W 123°21'4 8.5
2017-Nov-11 15:00N 48°51' W 123°20'3 5.3
2017-Nov-11 14:29N 48°48' W 123°19'5 9.9
2017-Nov-11 13:57N 48°44' W 123°24'2 0.3
2017-Nov-11 08:24N 48°42' W 123°24'512.1
2017-Nov-11 08:00N 48°46' W 123°21'5 8.8
2017-Nov-11 07:27N 48°49' W 123°15'2 3.7
2017-Nov-11 07:00N 48°48' W 123°12'611.2
2017-Nov-11 06:30N 48°50' W 123°20'2 4.4
2017-Nov-11 05:57N 48°53' W 123°19'2 4.4
2017-Nov-11 05:30N 48°51' W 123°20'3 5.4
2017-Nov-11 05:00N 48°48' W 123°21'611.3
2017-Nov-11 04:26N 48°42' W 123°24'1 0.9
2017-Nov-11 03:49N 48°41' W 123°24'511.3
2017-Nov-11 03:23N 48°46' W 123°21'2 6.3
2017-Nov-11 02:59N 48°48' W 123°19'4 7.5
2017-Nov-11 02:30N 48°52' W 123°19'1 1.5
2017-Nov-11 02:00N 48°52' W 123°18'2 2.8
2017-Nov-11 01:28N 48°51' W 123°20'2 5.0
2017-Nov-11 00:59N 48°49' W 123°17'3 6.7
2017-Nov-11 00:30N 48°48' W 123°12'510.7
2017-Nov-11 00:00N 48°49' W 123°20'611.2
2017-Nov-10 23:26N 48°43' W 123°24'1 0.7
2017-Nov-10 21:30N 48°42' W 123°24'612.3
2017-Nov-10 21:01N 48°48' W 123°21'4 7.0
2017-Nov-10 20:30N 48°51' W 123°21'2 3.8
2017-Nov-10 20:00N 48°53' W 123°19'2 4.1
2017-Nov-10 19:30N 48°51' W 123°20'2 3.3
2017-Nov-10 19:00N 48°50' W 123°19'5 9.1
2017-Nov-10 18:30N 48°48' W 123°12'5 9.3
2017-Nov-10 17:59N 48°50' W 123°19'711.3
2017-Nov-10 17:21N 48°43' W 123°24'1 1.5
2017-Nov-10 16:31N 48°42' W 123°24'110.6
2017-Nov-10 16:27N 48°43' W 123°24'510.9
2017-Nov-10 16:00N 48°47' W 123°20'2 3.8
2017-Nov-10 15:30N 48°49' W 123°20'1 2.2
2017-Nov-10 15:00N 48°50' W 123°20'611.0
2017-Nov-10 14:30N 48°48' W 123°12'4 7.3
2017-Nov-10 14:00N 48°49' W 123°17'710.4
2017-Nov-10 13:20N 48°44' W 123°24'2 0.3
2017-Nov-10 07:33N 48°42' W 123°24'111.8
2017-Nov-10 07:30N 48°43' W 123°24'612.2
2017-Nov-10 07:00N 48°48' W 123°20'5 9.9
2017-Nov-10 06:28N 48°48' W 123°12'2 5.2
2017-Nov-10 06:00N 48°49' W 123°16'3 6.0
2017-Nov-10 05:30N 48°51' W 123°20'3 5.9
2017-Nov-10 05:00N 48°48' W 123°19'611.2
2017-Nov-10 04:25N 48°42' W 123°24'0 0.4
2017-Nov-10 03:51N 48°42' W 123°24'411.2
2017-Nov-10 03:30N 48°46' W 123°21'3 5.6
2017-Nov-10 03:00N 48°48' W 123°20'4 8.0
2017-Nov-10 02:30N 48°52' W 123°18'1 2.8
2017-Nov-10 02:00N 48°52' W 123°20'1 2.2
2017-Nov-10 01:30N 48°51' W 123°20'2 3.2
2017-Nov-10 01:00N 48°49' W 123°18'4 8.3
2017-Nov-10 00:30N 48°48' W 123°12'510.2
2017-Nov-10 00:00N 48°50' W 123°19'711.1
2017-Nov-09 23:24N 48°44' W 123°24'2 1.0
2017-Nov-09 21:34N 48°42' W 123°24'211.9
2017-Nov-09 21:26N 48°43' W 123°24'512.5
2017-Nov-09 21:00N 48°48' W 123°21'3 5.5
2017-Nov-09 20:30N 48°51' W 123°21'2 3.8
2017-Nov-09 20:00N 48°53' W 123°19'2 3.4
2017-Nov-09 19:31N 48°51' W 123°21'2 4.4
2017-Nov-09 19:00N 48°50' W 123°19'5 9.7
2017-Nov-09 18:30N 48°48' W 123°12'5 9.8
2017-Nov-09 18:00N 48°50' W 123°19'610.8
2017-Nov-09 17:28N 48°44' W 123°23'3 2.1
2017-Nov-09 16:14N 48°42' W 123°24'312.6
2017-Nov-09 16:00N 48°45' W 123°23'4 8.3
2017-Nov-09 15:30N 48°48' W 123°19'3 5.3
2017-Nov-09 15:00N 48°51' W 123°20'3 6.7
2017-Nov-09 14:30N 48°49' W 123°15'0 0.8
2017-Nov-09 13:59N 48°49' W 123°15'510.1
2017-Nov-09 13:30N 48°46' W 123°21'5 0.8
2017-Nov-09 07:06N 48°42' W 123°24'111.5
2017-Nov-09 07:00N 48°43' W 123°24'713.3
2017-Nov-09 06:30N 48°49' W 123°20'  
Track history (hours):
 
Tides and Currents Weather Stations Pressure Air Temp Water Temp Dewpoint Dewpoint Depression Visibility Wind Speed Wind Dir Waves Ship Positions

Mayne Queen

Last reported at 2017-Nov-19 06:18 UTC. Time now 2017-Nov-19 08:58 UTC.
Position N 48°42' W 123°24'.

Length 85 m; draft 3.8 m.

Type: Passenger vessel. MMSI: 316001238.

Date/timePositionNaut miles runAvg speedWind from/ knotsBaromVisibWave heightAir tempDewpointWater temp
2017-Nov-19 06:18N 48°42' W 123°24'411.5
2017-Nov-19 05:56N 48°46' W 123°22'5 9.3
2017-Nov-19 05:24N 48°49' W 123°16'2 6.2
2017-Nov-19 05:00N 48°48' W 123°12'510.5
2017-Nov-19 04:30N 48°49' W 123°20'3 6.1
2017-Nov-19 04:00N 48°46' W 123°20'5 6.1
2017-Nov-19 03:06N 48°41' W 123°24'111.0
2017-Nov-19 02:59N 48°43' W 123°24'611.7
2017-Nov-19 02:30N 48°48' W 123°21'3 5.3
2017-Nov-19 01:56N 48°51' W 123°20'2 4.1
2017-Nov-19 01:28N 48°52' W 123°19'2 3.3
2017-Nov-19 00:53N 48°51' W 123°20'3 6.8
2017-Nov-19 00:28N 48°48' W 123°19'610.3
2017-Nov-18 23:54N 48°43' W 123°24'2 0.7
2017-Nov-18 21:35N 48°42' W 123°24'112.0
2017-Nov-18 21:29N 48°42' W 123°22'511.5
2017-Nov-18 21:00N 48°43' W 123°14'4 7.0
2017-Nov-18 20:30N 48°46' W 123°12'2 4.8
2017-Nov-18 20:00N 48°48' W 123°13'5 9.2
2017-Nov-18 19:30N 48°48' W 123°20'1 2.3
2017-Nov-18 18:59N 48°50' W 123°20'0 0.4
2017-Nov-18 18:30N 48°50' W 123°20'610.5
2017-Nov-18 17:59N 48°48' W 123°12'4 8.1
2017-Nov-18 17:27N 48°49' W 123°18'2 3.4
2017-Nov-18 17:00N 48°48' W 123°19'510.9
2017-Nov-18 16:30N 48°43' W 123°24'2 3.0
2017-Nov-18 15:55N 48°42' W 123°24'611.8
2017-Nov-18 15:27N 48°47' W 123°21'4 8.8
2017-Nov-18 15:00N 48°51' W 123°20'3 5.2
2017-Nov-18 14:29N 48°48' W 123°19'5 8.9
2017-Nov-18 13:53N 48°44' W 123°24'2 0.4
2017-Nov-18 08:10N 48°41' W 123°24'2 9.4
2017-Nov-18 07:59N 48°43' W 123°24'511.2
2017-Nov-18 07:30N 48°48' W 123°21'5 9.8
2017-Nov-18 06:57N 48°48' W 123°13'4 6.5
2017-Nov-18 06:18N 48°49' W 123°19'2 6.9
2017-Nov-18 05:59N 48°52' W 123°20'0 0.2
2017-Nov-18 05:27N 48°52' W 123°20'1 2.0
2017-Nov-18 05:00N 48°51' W 123°20'611.0
2017-Nov-18 04:30N 48°45' W 123°22'4 4.7
2017-Nov-18 03:44N 48°42' W 123°24'311.3
2017-Nov-18 03:27N 48°45' W 123°22'4 8.0
2017-Nov-18 03:00N 48°48' W 123°19'4 8.0
2017-Nov-18 02:30N 48°52' W 123°19'1 1.3
2017-Nov-18 01:59N 48°51' W 123°19'1 1.6
2017-Nov-18 01:30N 48°51' W 123°20'2 3.0
2017-Nov-18 01:00N 48°49' W 123°18'4 7.8
2017-Nov-18 00:27N 48°48' W 123°12'510.5
2017-Nov-18 00:00N 48°50' W 123°19'510.8
2017-Nov-17 23:30N 48°45' W 123°23'3 1.6
2017-Nov-17 21:21N 48°42' W 123°24'411.4
2017-Nov-17 20:58N 48°46' W 123°22'511.2
2017-Nov-17 20:30N 48°51' W 123°20'2 3.1
2017-Nov-17 20:00N 48°52' W 123°18'1 2.1
2017-Nov-17 19:30N 48°52' W 123°20'2 3.9
2017-Nov-17 19:00N 48°50' W 123°19'5 8.7
2017-Nov-17 18:27N 48°48' W 123°12'510.8
2017-Nov-17 18:00N 48°50' W 123°19'610.8
2017-Nov-17 17:27N 48°44' W 123°23'3 2.5
2017-Nov-17 16:21N 48°42' W 123°24'410.7
2017-Nov-17 15:58N 48°45' W 123°22'3 6.7
2017-Nov-17 15:29N 48°48' W 123°19'3 5.5
2017-Nov-17 15:00N 48°51' W 123°20'510.1
2017-Nov-17 14:29N 48°48' W 123°13'2 5.1
2017-Nov-17 14:00N 48°49' W 123°16'4 8.9
2017-Nov-17 13:30N 48°46' W 123°22'5 0.8
2017-Nov-17 07:39N 48°42' W 123°24'211.6
2017-Nov-17 07:28N 48°44' W 123°24'611.4
2017-Nov-17 06:58N 48°49' W 123°20'510.8
2017-Nov-17 06:30N 48°48' W 123°13'4 6.1
2017-Nov-17 05:53N 48°49' W 123°18'2 4.2
2017-Nov-17 05:30N 48°51' W 123°20'3 5.6
2017-Nov-17 05:00N 48°48' W 123°19'611.2
2017-Nov-17 04:29N 48°43' W 123°24'1 2.1
2017-Nov-17 03:57N 48°42' W 123°24'711.9
2017-Nov-17 03:23N 48°48' W 123°19'2 5.2
2017-Nov-17 03:00N 48°50' W 123°20'3 5.4
2017-Nov-17 02:26N 48°53' W 123°19'2 4.6
2017-Nov-17 02:00N 48°51' W 123°20'1 1.3
2017-Nov-17 01:28N 48°51' W 123°20'2 5.0
2017-Nov-17 01:00N 48°49' W 123°17'3 6.8
2017-Nov-17 00:31N 48°48' W 123°12'5 9.8
2017-Nov-16 23:58N 48°49' W 123°20'611.4
2017-Nov-16 23:28N 48°44' W 123°24'2 0.9
2017-Nov-16 21:22N 48°42' W 123°24'511.3
2017-Nov-16 20:54N 48°47' W 123°21'410.1
2017-Nov-16 20:30N 48°51' W 123°20'2 3.4
2017-Nov-16 20:00N 48°52' W 123°18'2 4.2
2017-Nov-16 19:30N 48°51' W 123°21'2 4.5
2017-Nov-16 18:59N 48°50' W 123°19'5 8.9
2017-Nov-16 18:28N 48°48' W 123°12'510.3
2017-Nov-16 18:00N 48°50' W 123°19'711.1
2017-Nov-16 17:24N 48°44' W 123°24'2 2.1
2017-Nov-16 16:27N 48°42' W 123°24'510.1
2017-Nov-16 15:55N 48°46' W 123°21'2 3.6
2017-Nov-16 15:28N 48°48' W 123°20'2 5.2
2017-Nov-16 15:00N 48°50' W 123°20'611.5
2017-Nov-16 14:30N 48°48' W 123°12'3 6.0
2017-Nov-16 13:59N 48°49' W 123°17'5 9.0
2017-Nov-16 13:24N 48°45' W 123°22'4 0.6
2017-Nov-16 07:42N 48°42' W 123°24'211.5
2017-Nov-16 07:29N 48°44' W 123°23'611.6
2017-Nov-16 07:00N 48°49' W 123°20'510.8
2017-Nov-16 06:31N 48°48' W 123°12'4 7.4
2017-Nov-16 05:59N 48°49' W 123°18'2 3.9
2017-Nov-16 05:30N 48°51' W 123°20'3 5.4
2017-Nov-16 05:00N 48°48' W 123°19'610.3
2017-Nov-16 04:28N 48°43' W 123°24'2 2.3
2017-Nov-16 03:48N 48°42' W 123°24'411.8
2017-Nov-16 03:27N 48°46' W 123°21'4 6.7
2017-Nov-16 02:54N 48°49' W 123°21'3 8.4
2017-Nov-16 02:29N 48°53' W 123°19'1 2.8
2017-Nov-16 02:00N 48°52' W 123°20'1 1.9
2017-Nov-16 01:28N 48°51' W 123°20'2 3.8
2017-Nov-16 00:55N 48°49' W 123°17'4 8.8
2017-Nov-16 00:30N 48°48' W 123°12'5 9.3
2017-Nov-15 23:59N 48°50' W 123°19'510.8
2017-Nov-15 23:30N 48°45' W 123°23'3 1.8
2017-Nov-15 21:34N 48°41' W 123°24'110.4
2017-Nov-15 21:30N 48°42' W 123°24'611.2
2017-Nov-15 21:00N 48°47' W 123°21'3 6.9
2017-Nov-15 20:30N 48°51' W 123°20'2 3.6
2017-Nov-15 19:59N 48°53' W 123°19'2 3.8
2017-Nov-15 19:28N 48°51' W 123°20'3 5.8
2017-Nov-15 18:54N 48°49' W 123°15'2 5.8
2017-Nov-15 18:30N 48°48' W 123°12'510.3
2017-Nov-15 18:00N 48°50' W 123°20'611.7
2017-Nov-15 17:28N 48°44' W 123°23'2 3.4
2017-Nov-15 16:48N 48°42' W 123°23'510.0
2017-Nov-15 16:20N 48°46' W 123°21'2 7.3
2017-Nov-15 16:00N 48°48' W 123°19'3 5.2
2017-Nov-15 15:30N 48°51' W 123°20'2 4.6
2017-Nov-15 14:59N 48°49' W 123°17'3 6.1
2017-Nov-15 14:26N 48°48' W 123°12'510.1
2017-Nov-15 13:59N 48°49' W 123°19'510.2
2017-Nov-15 13:27N 48°45' W 123°22'0 0.0
2017-Nov-15 07:30N 48°45' W 123°22'5 9.9
2017-Nov-15 06:58N 48°50' W 123°20'5 9.0
2017-Nov-15 06:23N 48°48' W 123°12'1 2.8
2017-Nov-15 06:00N 48°48' W 123°14'5 9.7
2017-Nov-15 05:30N 48°51' W 123°20'3 5.6
2017-Nov-15 05:00N 48°48' W 123°19'3 6.8
2017-Nov-15 04:30N 48°45' W 123°22'4 5.7
2017-Nov-15 03:51N 48°42' W 123°24'410.8
2017-Nov-15 03:30N 48°45' W 123°22'3 6.3
2017-Nov-15 03:00N 48°48' W 123°19'4 8.7
2017-Nov-15 02:29N 48°52' W 123°18'1 2.7
2017-Nov-15 02:00N 48°52' W 123°20'1 1.9
2017-Nov-15 01:30N 48°51' W 123°20'2 3.8
2017-Nov-15 00:59N 48°49' W 123°17'4 7.8
2017-Nov-15 00:30N 48°48' W 123°12'5 9.4
2017-Nov-14 23:59N 48°50' W 123°19'611.2
2017-Nov-14 23:25N 48°44' W 123°23'2 1.1
2017-Nov-14 21:31N 48°42' W 123°24'011.3
2017-Nov-14 21:30N 48°42' W 123°24'510.7
2017-Nov-14 21:00N 48°47' W 123°21'4 7.5
2017-Nov-14 20:30N 48°51' W 123°20'2 3.6
2017-Nov-14 19:58N 48°53' W 123°19'2 3.8
2017-Nov-14 19:30N 48°51' W 123°21'3 5.2
2017-Nov-14 19:00N 48°49' W 123°18'4 8.8
2017-Nov-14 18:30N 48°48' W 123°12'5 9.4
2017-Nov-14 18:00N 48°50' W 123°19'610.2
2017-Nov-14 17:27N 48°45' W 123°23'3 3.2
2017-Nov-14 16:34N 48°42' W 123°24'111.1
2017-Nov-14 16:30N 48°43' W 123°24'5 9.7
2017-Nov-14 16:00N 48°47' W 123°20'1 2.5
2017-Nov-14 15:30N 48°48' W 123°19'2 3.8
2017-Nov-14 14:58N 48°50' W 123°20'611.0
2017-Nov-14 14:27N 48°48' W 123°12'4 7.4
2017-Nov-14 13:58N 48°49' W 123°17'4 8.6
2017-Nov-14 13:27N 48°46' W 123°22'4 0.7
2017-Nov-14 07:03N 48°42' W 123°24'111.1
2017-Nov-14 06:58N 48°43' W 123°24'611.4
2017-Nov-14 06:27N 48°48' W 123°21'5 9.3
2017-Nov-14 05:58N 48°48' W 123°14'1 2.2
2017-Nov-14 05:30N 48°49' W 123°15'3 5.2
2017-Nov-14 05:00N 48°48' W 123°19'5 9.2
2017-Nov-14 04:27N 48°44' W 123°23'2 4.5
2017-Nov-14 03:55N 48°41' W 123°24'510.7
2017-Nov-14 03:24N 48°47' W 123°21'410.4
2017-Nov-14 02:59N 48°51' W 123°20'3 5.5
2017-Nov-14 02:28N 48°49' W 123°16'3 6.0
2017-Nov-14 02:00N 48°48' W 123°12'4 7.8
2017-Nov-14 01:29N 48°49' W 123°18'4 8.9
2017-Nov-14 00:59N 48°46' W 123°22'4 5.9
2017-Nov-14 00:13N 48°42' W 123°24'2 8.5
2017-Nov-14 00:00N 48°42' W 123°21'610.6
2017-Nov-13 23:28N 48°48' W 123°19'1 1.4
2017-Nov-13 23:00N 48°47' W 123°20'5 0.2
2017-Nov-13 01:29N 48°48' W 123°12'510.5
2017-Nov-13 01:00N 48°50' W 123°19'610.7
2017-Nov-13 00:28N 48°44' W 123°23'3 4.6
2017-Nov-12 23:52N 48°42' W 123°24'411.9
2017-Nov-12 23:30N 48°46' W 123°21'3 5.6
2017-Nov-12 23:00N 48°48' W 123°19'611.1
2017-Nov-12 22:25N 48°42' W 123°24'1 0.4
2017-Nov-12 20:36N 48°42' W 123°24'211.6
2017-Nov-12 20:28N 48°43' W 123°24'511.5
2017-Nov-12 20:00N 48°48' W 123°21'4 8.5
2017-Nov-12 19:30N 48°52' W 123°18'1 2.8
2017-Nov-12 19:00N 48°52' W 123°21'2 4.2
2017-Nov-12 18:30N 48°50' W 123°19'510.1
2017-Nov-12 18:00N 48°48' W 123°12'4 7.6
2017-Nov-12 17:28N 48°49' W 123°18'2 3.8
2017-Nov-12 17:00N 48°50' W 123°20'611.2
2017-Nov-12 16:30N 48°48' W 123°12'1 2.3
2017-Nov-12 16:00N 48°49' W 123°14'510.4
2017-Nov-12 15:28N 48°52' W 123°21'2 3.4
2017-Nov-12 15:00N 48°52' W 123°19'3 5.4
2017-Nov-12 14:29N 48°49' W 123°21'611.5
2017-Nov-12 13:56N 48°43' W 123°24'2 0.2
2017-Nov-12 06:17N 48°42' W 123°24'411.4
2017-Nov-12 05:58N 48°45' W 123°22'510.5
2017-Nov-12 05:29N 48°49' W 123°18'4 8.1
2017-Nov-12 04:58N 48°48' W 123°12'510.9
2017-Nov-12 04:30N 48°50' W 123°19'4 6.3
2017-Nov-12 03:55N 48°46' W 123°21'512.0
2017-Nov-12 03:30N 48°42' W 123°24'2 4.4
2017-Nov-12 02:59N 48°44' W 123°24'611.6
2017-Nov-12 02:29N 48°49' W 123°21'2 4.6
2017-Nov-12 01:59N 48°52' W 123°20'1 2.5
2017-Nov-12 01:30N 48°53' W 123°19'2 3.8
2017-Nov-12 01:00N 48°51' W 123°20'3 5.1
2017-Nov-12 00:27N 48°48' W 123°19'511.0
2017-Nov-12 00:00N 48°44' W 123°23'2 0.8
2017-Nov-11 21:27N 48°42' W 123°24'612.0
2017-Nov-11 20:59N 48°47' W 123°21'4 8.2
2017-Nov-11 20:29N 48°49' W 123°15'1 2.2
2017-Nov-11 20:00N 48°48' W 123°14'4 7.3
2017-Nov-11 19:30N 48°48' W 123°19'3 5.2
2017-Nov-11 19:00N 48°51' W 123°20'0 0.1
2017-Nov-11 18:30N 48°50' W 123°20'510.7
2017-Nov-11 18:00N 48°48' W 123°13'3 5.1
2017-Nov-11 17:30N 48°49' W 123°17'2 3.8
2017-Nov-11 17:00N 48°48' W 123°19'710.9
2017-Nov-11 16:22N 48°42' W 123°24'0 0.8
2017-Nov-11 15:58N 48°42' W 123°24'511.3
2017-Nov-11 15:29N 48°47' W 123°21'4 8.5
2017-Nov-11 15:00N 48°51' W 123°20'3 5.3
2017-Nov-11 14:29N 48°48' W 123°19'5 9.9
2017-Nov-11 13:57N 48°44' W 123°24'2 0.3
2017-Nov-11 08:24N 48°42' W 123°24'512.1
2017-Nov-11 08:00N 48°46' W 123°21'5 8.8
2017-Nov-11 07:27N 48°49' W 123°15'2 3.7
2017-Nov-11 07:00N 48°48' W 123°12'611.2
2017-Nov-11 06:30N 48°50' W 123°20'2 4.4
2017-Nov-11 05:57N 48°53' W 123°19'2 4.4
2017-Nov-11 05:30N 48°51' W 123°20'3 5.4
2017-Nov-11 05:00N 48°48' W 123°21'611.3
2017-Nov-11 04:26N 48°42' W 123°24'1 0.9
2017-Nov-11 03:49N 48°41' W 123°24'511.3
2017-Nov-11 03:23N 48°46' W 123°21'2 6.3
2017-Nov-11 02:59N 48°48' W 123°19'4 7.5
2017-Nov-11 02:30N 48°52' W 123°19'1 1.5
2017-Nov-11 02:00N 48°52' W 123°18'2 2.8
2017-Nov-11 01:28N 48°51' W 123°20'2 5.0
2017-Nov-11 00:59N 48°49' W 123°17'3 6.7
2017-Nov-11 00:30N 48°48' W 123°12'510.7
2017-Nov-11 00:00N 48°49' W 123°20'611.2
2017-Nov-10 23:26N 48°43' W 123°24'1 0.7
2017-Nov-10 21:30N 48°42' W 123°24'612.3
2017-Nov-10 21:01N 48°48' W 123°21'4 7.0
2017-Nov-10 20:30N 48°51' W 123°21'2 3.8
2017-Nov-10 20:00N 48°53' W 123°19'2 4.1
2017-Nov-10 19:30N 48°51' W 123°20'2 3.3
2017-Nov-10 19:00N 48°50' W 123°19'5 9.1
2017-Nov-10 18:30N 48°48' W 123°12'5 9.3
2017-Nov-10 17:59N 48°50' W 123°19'711.3
2017-Nov-10 17:21N 48°43' W 123°24'1 1.5
2017-Nov-10 16:31N 48°42' W 123°24'110.6
2017-Nov-10 16:27N 48°43' W 123°24'510.9
2017-Nov-10 16:00N 48°47' W 123°20'2 3.8
2017-Nov-10 15:30N 48°49' W 123°20'1 2.2
2017-Nov-10 15:00N 48°50' W 123°20'611.0
2017-Nov-10 14:30N 48°48' W 123°12'4 7.3
2017-Nov-10 14:00N 48°49' W 123°17'710.4
2017-Nov-10 13:20N 48°44' W 123°24'2 0.3
2017-Nov-10 07:33N 48°42' W 123°24'111.8
2017-Nov-10 07:30N 48°43' W 123°24'612.2
2017-Nov-10 07:00N 48°48' W 123°20'5 9.9
2017-Nov-10 06:28N 48°48' W 123°12'2 5.2
2017-Nov-10 06:00N 48°49' W 123°16'3 6.0
2017-Nov-10 05:30N 48°51' W 123°20'3 5.9
2017-Nov-10 05:00N 48°48' W 123°19'611.2
2017-Nov-10 04:25N 48°42' W 123°24'0 0.4
2017-Nov-10 03:51N 48°42' W 123°24'411.2
2017-Nov-10 03:30N 48°46' W 123°21'3 5.6
2017-Nov-10 03:00N 48°48' W 123°20'4 8.0
2017-Nov-10 02:30N 48°52' W 123°18'1 2.8
2017-Nov-10 02:00N 48°52' W 123°20'1 2.2
2017-Nov-10 01:30N 48°51' W 123°20'2 3.2
2017-Nov-10 01:00N 48°49' W 123°18'4 8.3
2017-Nov-10 00:30N 48°48' W 123°12'510.2
2017-Nov-10 00:00N 48°50' W 123°19'711.1
2017-Nov-09 23:24N 48°44' W 123°24'2 1.0
2017-Nov-09 21:34N 48°42' W 123°24'211.9
2017-Nov-09 21:26N 48°43' W 123°24'512.5
2017-Nov-09 21:00N 48°48' W 123°21'3 5.5
2017-Nov-09 20:30N 48°51' W 123°21'2 3.8
2017-Nov-09 20:00N 48°53' W 123°19'2 3.4
2017-Nov-09 19:31N 48°51' W 123°21'2 4.4
2017-Nov-09 19:00N 48°50' W 123°19'5 9.7
2017-Nov-09 18:30N 48°48' W 123°12'5 9.8
2017-Nov-09 18:00N 48°50' W 123°19'610.8
2017-Nov-09 17:28N 48°44' W 123°23'3 2.1
2017-Nov-09 16:14N 48°42' W 123°24'312.6
2017-Nov-09 16:00N 48°45' W 123°23'4 8.3
2017-Nov-09 15:30N 48°48' W 123°19'3 5.3
2017-Nov-09 15:00N 48°51' W 123°20'3 6.7
2017-Nov-09 14:30N 48°49' W 123°15'0 0.8
2017-Nov-09 13:59N 48°49' W 123°15'510.1
2017-Nov-09 13:30N 48°46' W 123°21'5 0.8
2017-Nov-09 07:06N 48°42' W 123°24'111.5
2017-Nov-09 07:00N 48°43' W 123°24'713.3
2017-Nov-09 06:30N 48°49' W 123°20'  

Dump ship's entire track history